Time;durP1;ratioP1;P1;durP2;ratioP2;P2;SDS_P1;SDS_P2;PMS_P1;PMS_P2;Temp;Humidity;BMP_temperature;BMP_pressure;BME280_temperature;BME280_humidity;BME280_pressure;Samples;Min_cycle;Max_cycle;Signal;HPM_P1;HPM_P2
2023/05/28 00:01:04;;;;;;;6.63;2.80;;;11.70;99.90;;;;;;5035844;28;20955;-79
2023/05/28 00:03:32;;;;;;;4.97;2.33;;;11.70;99.90;;;;;;5039734;28;20449;-77
2023/05/28 00:05:59;;;;;;;11.47;3.03;;;11.70;99.90;;;;;;5038299;28;20461;-79
2023/05/28 00:08:26;;;;;;;6.90;3.13;;;11.70;99.90;;;;;;5039140;28;20963;-80
2023/05/28 00:10:59;;;;;;;6.70;2.70;;;11.70;99.90;;;;;;5040813;28;20582;-79
2023/05/28 00:13:27;;;;;;;8.93;2.30;;;11.60;99.90;;;;;;5044114;28;20920;-78
2023/05/28 00:15:54;;;;;;;2.80;2.50;;;11.50;99.90;;;;;;5034541;28;20466;-76
2023/05/28 00:18:21;;;;;;;5.23;3.43;;;11.50;99.90;;;;;;5041913;28;20446;-77
2023/05/28 00:20:49;;;;;;;4.37;2.67;;;11.40;99.90;;;;;;5042577;28;20556;-78
2023/05/28 00:23:16;;;;;;;9.13;3.43;;;11.30;99.90;;;;;;5033392;28;20495;-76
2023/05/28 00:25:43;;;;;;;4.30;2.20;;;11.30;99.90;;;;;;5044287;28;20537;-78
2023/05/28 00:28:11;;;;;;;8.30;2.53;;;11.30;99.90;;;;;;5043083;28;20497;-78
2023/05/28 00:30:38;;;;;;;5.10;2.73;;;11.10;99.90;;;;;;5046402;28;21007;-77
2023/05/28 00:33:05;;;;;;;7.10;3.13;;;11.10;99.90;;;;;;5043491;28;20492;-78
2023/05/28 00:35:32;;;;;;;6.67;3.90;;;11.10;99.90;;;;;;5043270;28;20931;-78
2023/05/28 00:37:59;;;;;;;7.33;3.47;;;11.10;99.90;;;;;;5032958;28;20547;-78
2023/05/28 00:40:26;;;;;;;5.97;2.90;;;11.10;99.90;;;;;;5041394;28;20472;-79
2023/05/28 00:42:53;;;;;;;8.70;3.67;;;11.10;99.90;;;;;;5029077;28;20509;-78
2023/05/28 00:45:21;;;;;;;4.23;3.07;;;11.20;99.90;;;;;;5041003;28;20493;-80
2023/05/28 00:47:49;;;;;;;4.93;2.97;;;11.20;99.90;;;;;;5030753;28;20486;-78
2023/05/28 00:50:17;;;;;;;9.50;2.53;;;11.30;99.90;;;;;;5034811;28;20480;-79
2023/05/28 00:52:47;;;;;;;7.50;2.73;;;11.20;99.90;;;;;;5034508;28;20537;-81
2023/05/28 00:55:15;;;;;;;3.63;2.27;;;11.20;99.90;;;;;;5039791;28;20558;-78
2023/05/28 00:57:43;;;;;;;8.40;3.80;;;11.20;99.90;;;;;;5040978;28;21011;-77
2023/05/28 01:00:13;;;;;;;7.70;3.20;;;11.10;99.90;;;;;;5032790;28;20547;-78
2023/05/28 01:02:42;;;;;;;5.63;2.60;;;11.10;99.90;;;;;;5031334;28;20519;-77
2023/05/28 01:05:09;;;;;;;5.07;2.50;;;11.10;99.90;;;;;;5040191;28;20522;-76
2023/05/28 01:07:37;;;;;;;5.23;3.33;;;11.10;99.90;;;;;;5037147;28;20446;-78
2023/05/28 01:10:05;;;;;;;6.33;2.60;;;11.10;99.90;;;;;;5044726;28;20669;-79
2023/05/28 01:12:33;;;;;;;8.30;2.53;;;11.00;99.90;;;;;;5041914;28;20519;-77
2023/05/28 01:15:00;;;;;;;4.83;3.57;;;11.00;99.90;;;;;;5042944;28;20445;-78
2023/05/28 01:17:28;;;;;;;4.80;3.30;;;11.10;99.90;;;;;;5036364;28;20489;-78
2023/05/28 01:19:56;;;;;;;7.10;2.57;;;11.10;99.90;;;;;;5038255;28;21233;-77
2023/05/28 01:22:29;;;;;;;5.10;1.90;;;11.10;99.90;;;;;;5031295;28;20456;-77
2023/05/28 01:25:00;;;;;;;4.00;3.10;;;11.10;99.90;;;;;;5039392;28;20485;-78
2023/05/28 01:27:28;;;;;;;8.13;3.90;;;11.00;99.90;;;;;;5037068;28;20461;-79
2023/05/28 01:29:55;;;;;;;4.30;2.60;;;11.00;99.90;;;;;;5038372;28;20437;-78
2023/05/28 01:32:22;;;;;;;7.80;2.80;;;11.00;99.90;;;;;;5034181;28;20927;-76
2023/05/28 01:34:49;;;;;;;3.20;2.90;;;11.00;99.90;;;;;;5044417;28;20962;-79
2023/05/28 01:37:17;;;;;;;4.60;2.30;;;11.00;99.90;;;;;;5044828;28;20518;-77
2023/05/28 01:39:47;;;;;;;6.63;3.00;;;11.10;99.90;;;;;;5034091;28;20458;-80
2023/05/28 01:42:16;;;;;;;8.57;3.00;;;11.00;99.90;;;;;;5037259;28;20493;-78
2023/05/28 01:44:44;;;;;;;8.97;2.73;;;11.00;99.90;;;;;;5045878;28;20508;-78
2023/05/28 01:47:13;;;;;;;4.70;3.23;;;10.90;99.90;;;;;;5046595;28;20971;-77
2023/05/28 01:49:40;;;;;;;6.20;2.60;;;10.90;99.90;;;;;;5036582;28;21001;-77
2023/05/28 01:52:08;;;;;;;8.00;3.10;;;10.90;99.90;;;;;;5040073;28;20482;-76
2023/05/28 01:54:35;;;;;;;6.67;3.13;;;10.80;99.90;;;;;;5038539;28;20474;-77
2023/05/28 01:57:02;;;;;;;5.40;2.27;;;10.80;99.90;;;;;;5041420;28;20485;-76
2023/05/28 01:59:31;;;;;;;5.07;2.50;;;10.70;99.90;;;;;;5036625;28;20488;-79
2023/05/28 02:01:58;;;;;;;8.10;2.87;;;10.70;99.90;;;;;;5045928;28;20459;-77
2023/05/28 02:04:25;;;;;;;4.23;2.20;;;10.70;99.90;;;;;;5041068;28;20482;-77
2023/05/28 02:06:52;;;;;;;5.37;2.60;;;10.60;99.90;;;;;;5040257;28;20485;-77
2023/05/28 02:09:19;;;;;;;8.70;3.43;;;10.60;99.90;;;;;;5047152;28;20458;-79
2023/05/28 02:11:46;;;;;;;4.70;2.73;;;10.50;99.90;;;;;;5043154;28;20484;-77
2023/05/28 02:14:14;;;;;;;3.57;2.33;;;10.50;99.90;;;;;;5040722;28;20516;-77
2023/05/28 02:16:47;;;;;;;7.20;3.00;;;10.50;99.90;;;;;;5045741;28;20461;-80
2023/05/28 02:19:15;;;;;;;8.23;2.57;;;10.50;99.90;;;;;;5044929;28;20461;-76
2023/05/28 02:21:42;;;;;;;7.80;2.20;;;10.50;99.90;;;;;;5044462;28;20465;-77
2023/05/28 02:24:09;;;;;;;5.43;2.13;;;10.50;99.90;;;;;;5039897;28;20452;-77
2023/05/28 02:26:36;;;;;;;17.33;4.00;;;10.50;99.90;;;;;;5041354;28;20446;-76
2023/05/28 02:29:03;;;;;;;2.50;2.30;;;10.50;99.90;;;;;;5040138;28;20485;-79
2023/05/28 02:31:30;;;;;;;6.73;2.03;;;10.40;99.90;;;;;;5043536;28;20513;-76
2023/05/28 02:33:58;;;;;;;5.50;2.83;;;10.40;99.90;;;;;;5043857;28;20485;-77
2023/05/28 02:36:25;;;;;;;5.90;2.57;;;10.30;99.90;;;;;;5043217;28;20914;-76
2023/05/28 02:38:52;;;;;;;3.20;2.53;;;10.30;99.90;;;;;;5042680;28;20469;-77
2023/05/28 02:41:19;;;;;;;4.30;2.50;;;10.40;99.90;;;;;;5039946;28;20883;-77
2023/05/28 02:43:46;;;;;;;5.57;2.43;;;10.40;99.90;;;;;;5045962;28;20461;-77
2023/05/28 02:46:13;;;;;;;3.10;2.10;;;10.40;99.90;;;;;;5045361;28;20512;-77
2023/05/28 02:48:40;;;;;;;8.53;2.63;;;10.30;99.90;;;;;;5031061;28;20532;-77
2023/05/28 02:51:08;;;;;;;4.03;2.83;;;10.30;99.90;;;;;;5038476;28;21104;-77
2023/05/28 02:53:35;;;;;;;4.97;2.50;;;10.40;99.90;;;;;;5041678;28;21063;-77
2023/05/28 02:56:02;;;;;;;4.43;3.20;;;10.40;99.90;;;;;;5034221;28;20492;-78
2023/05/28 02:58:30;;;;;;;3.77;2.50;;;10.30;99.90;;;;;;5042646;28;20816;-76
2023/05/28 03:00:57;;;;;;;7.70;2.07;;;10.30;99.90;;;;;;5031866;28;20470;-77
2023/05/28 03:03:24;;;;;;;6.23;2.13;;;10.30;99.90;;;;;;5029372;28;20474;-76
2023/05/28 03:05:51;;;;;;;9.00;2.40;;;10.30;99.90;;;;;;5038748;28;20489;-77
2023/05/28 03:08:20;;;;;;;4.30;2.30;;;10.30;99.90;;;;;;5031060;28;20462;-77
2023/05/28 03:10:47;;;;;;;8.37;2.37;;;10.30;99.90;;;;;;5035233;28;20493;-77
2023/05/28 03:13:14;;;;;;;9.27;2.30;;;10.20;99.90;;;;;;5034010;28;20505;-75
2023/05/28 03:15:41;;;;;;;7.83;2.90;;;10.20;99.90;;;;;;5041406;28;20540;-77
2023/05/28 03:18:08;;;;;;;6.10;2.50;;;10.20;99.90;;;;;;5033919;28;20449;-77
2023/05/28 03:20:35;;;;;;;6.70;2.93;;;10.20;99.90;;;;;;5040667;28;20544;-76
2023/05/28 03:23:02;;;;;;;3.80;2.57;;;10.20;99.90;;;;;;5041567;28;20445;-77
2023/05/28 03:25:30;;;;;;;7.20;3.43;;;10.20;99.90;;;;;;5041054;28;20518;-77
2023/05/28 03:27:57;;;;;;;4.60;3.23;;;10.20;99.90;;;;;;5029489;28;21164;-77
2023/05/28 03:30:24;;;;;;;4.43;2.20;;;10.30;99.90;;;;;;5041101;28;21004;-77
2023/05/28 03:32:51;;;;;;;5.33;2.23;;;10.30;99.90;;;;;;5042327;28;20540;-76
2023/05/28 03:35:19;;;;;;;3.30;1.80;;;10.30;99.90;;;;;;5043464;28;20516;-80
2023/05/28 03:37:46;;;;;;;9.50;2.13;;;10.30;99.90;;;;;;5037220;28;20949;-77
2023/05/28 03:40:13;;;;;;;4.73;2.20;;;10.30;99.90;;;;;;5032750;28;20540;-82
2023/05/28 03:42:41;;;;;;;4.83;2.30;;;10.30;99.90;;;;;;5036447;28;21238;-77
2023/05/28 03:45:09;;;;;;;7.47;2.30;;;10.30;99.90;;;;;;5032721;28;20877;-78
2023/05/28 03:47:36;;;;;;;6.00;2.93;;;10.30;99.90;;;;;;5037048;28;20453;-79
2023/05/28 03:50:05;;;;;;;2.67;2.10;;;10.30;99.90;;;;;;5041911;28;20464;-77
2023/05/28 03:52:32;;;;;;;5.37;2.17;;;10.30;99.90;;;;;;5037058;28;20929;-78
2023/05/28 03:54:59;;;;;;;6.50;2.57;;;10.40;99.90;;;;;;5045431;28;20473;-78
2023/05/28 03:57:26;;;;;;;8.00;1.90;;;10.50;99.90;;;;;;5035576;28;20488;-77
2023/05/28 03:59:55;;;;;;;3.60;2.03;;;10.50;99.90;;;;;;5036740;28;20959;-78
2023/05/28 04:02:23;;;;;;;5.17;2.10;;;10.50;99.90;;;;;;5045150;28;20480;-77
2023/05/28 04:04:50;;;;;;;6.77;2.20;;;10.60;99.90;;;;;;5030168;28;20993;-80
2023/05/28 04:07:17;;;;;;;4.53;2.33;;;10.70;99.90;;;;;;5039704;28;20461;-77
2023/05/28 04:09:44;;;;;;;5.60;2.60;;;10.70;99.90;;;;;;5041821;28;20496;-78
2023/05/28 04:12:12;;;;;;;5.70;2.63;;;10.80;99.90;;;;;;5039045;28;21105;-78
2023/05/28 04:14:40;;;;;;;4.17;2.00;;;10.80;99.90;;;;;;5038060;28;20449;-77
2023/05/28 04:17:10;;;;;;;10.00;1.80;;;10.80;99.90;;;;;;5037580;28;20516;-77
2023/05/28 04:19:37;;;;;;;7.30;2.40;;;10.90;99.90;;;;;;5043493;28;20465;-78
2023/05/28 04:22:05;;;;;;;5.13;2.50;;;10.90;99.90;;;;;;5040853;28;20502;-77
2023/05/28 04:24:32;;;;;;;4.37;3.37;;;10.90;99.90;;;;;;5044457;28;20473;-77
2023/05/28 04:26:59;;;;;;;1.70;1.37;;;10.90;99.90;;;;;;5043714;28;20988;-77
2023/05/28 04:29:29;;;;;;;4.60;2.10;;;11.10;99.90;;;;;;5041682;28;20446;-76
2023/05/28 04:31:57;;;;;;;3.70;2.30;;;11.20;99.90;;;;;;5036474;28;21055;-77
2023/05/28 04:34:26;;;;;;;3.40;1.83;;;11.20;99.90;;;;;;5038654;28;20449;-77
2023/05/28 04:36:52;;;;;;;6.20;2.87;;;11.30;99.90;;;;;;5039682;28;20488;-77
2023/05/28 04:39:22;;;;;;;6.70;2.30;;;11.40;99.90;;;;;;5031283;28;20503;-77
2023/05/28 04:41:49;;;;;;;2.90;2.10;;;11.40;99.90;;;;;;5041095;28;20481;-77
2023/05/28 04:44:17;;;;;;;3.40;2.30;;;11.60;99.90;;;;;;5034692;28;21036;-77
2023/05/28 04:46:45;;;;;;;2.87;2.07;;;11.70;99.90;;;;;;5036767;28;21040;-77
2023/05/28 04:49:13;;;;;;;4.93;2.00;;;11.70;99.90;;;;;;5035013;28;20468;-79
2023/05/28 04:51:41;;;;;;;3.60;2.90;;;11.80;99.90;;;;;;5043336;28;20805;-78
2023/05/28 04:54:08;;;;;;;4.63;2.10;;;11.80;99.90;;;;;;5036547;28;20462;-77
2023/05/28 04:56:36;;;;;;;3.10;1.97;;;11.90;99.90;;;;;;5029951;28;20857;-77
2023/05/28 04:59:05;;;;;;;6.10;2.60;;;12.00;99.90;;;;;;5036690;28;20502;-78
2023/05/28 05:01:33;;;;;;;6.37;2.63;;;12.10;99.90;;;;;;5047475;28;21155;-77
2023/05/28 05:04:00;;;;;;;3.53;1.83;;;12.10;99.90;;;;;;5049608;28;20453;-77
2023/05/28 05:06:27;;;;;;;6.60;2.83;;;12.20;99.90;;;;;;5049059;28;20480;-78
2023/05/28 05:08:55;;;;;;;4.03;2.53;;;12.30;99.90;;;;;;5041632;28;20465;-80
2023/05/28 05:11:23;;;;;;;4.50;1.50;;;12.30;99.80;;;;;;5033897;28;20465;-78
2023/05/28 05:13:50;;;;;;;2.77;1.90;;;12.30;99.90;;;;;;5032020;28;20528;-76
2023/05/28 05:16:17;;;;;;;3.40;1.70;;;12.50;99.40;;;;;;5044164;28;20496;-78
2023/05/28 05:18:44;;;;;;;4.13;1.87;;;12.50;98.90;;;;;;5043308;28;20495;-80
2023/05/28 05:21:12;;;;;;;6.10;2.50;;;12.70;98.80;;;;;;5036463;28;20565;-78
2023/05/28 05:23:40;;;;;;;6.67;2.13;;;12.70;99.00;;;;;;5031758;28;20473;-80
2023/05/28 05:26:12;;;;;;;2.33;1.90;;;12.80;98.10;;;;;;5036582;28;20458;-77
2023/05/28 05:28:39;;;;;;;3.97;2.10;;;12.90;97.70;;;;;;5033669;28;21054;-78
2023/05/28 05:31:06;;;;;;;6.03;2.20;;;13.10;96.90;;;;;;5038253;28;20929;-79
2023/05/28 05:33:33;;;;;;;5.77;2.47;;;13.00;97.10;;;;;;5031705;28;20532;-77
2023/05/28 05:36:00;;;;;;;4.40;2.20;;;13.10;97.30;;;;;;5038050;28;20572;-78
2023/05/28 05:38:27;;;;;;;3.30;1.70;;;13.30;95.90;;;;;;5030380;28;20515;-78
2023/05/28 05:40:54;;;;;;;3.00;1.50;;;13.50;95.60;;;;;;5040893;28;20488;-78
2023/05/28 05:43:22;;;;;;;3.97;1.53;;;13.60;96.30;;;;;;5036053;28;20450;-79
2023/05/28 05:45:49;;;;;;;4.77;2.40;;;13.70;95.00;;;;;;5033260;28;20562;-78
2023/05/28 05:48:16;;;;;;;4.63;2.33;;;13.70;95.30;;;;;;5037692;28;21034;-77
2023/05/28 05:50:50;;;;;;;4.40;2.17;;;13.80;96.30;;;;;;5032657;28;20508;-78
2023/05/28 05:53:17;;;;;;;1.73;1.57;;;13.80;95.10;;;;;;5036255;28;20626;-79
2023/05/28 05:55:44;;;;;;;3.60;2.00;;;13.90;95.30;;;;;;5041757;28;20894;-78
2023/05/28 05:58:11;;;;;;;5.47;2.40;;;13.90;94.70;;;;;;5030125;28;21128;-77
2023/05/28 06:00:40;;;;;;;3.67;2.13;;;13.90;94.70;;;;;;5043558;28;20489;-77
2023/05/28 06:03:07;;;;;;;4.77;2.23;;;14.10;94.80;;;;;;5042308;28;20540;-78
2023/05/28 06:05:34;;;;;;;3.13;1.80;;;14.30;93.80;;;;;;5036492;28;20452;-78
2023/05/28 06:08:02;;;;;;;4.97;1.33;;;14.30;93.70;;;;;;5038006;28;20547;-79
2023/05/28 06:10:29;;;;;;;4.60;1.83;;;14.30;93.50;;;;;;5035612;28;20511;-79
2023/05/28 06:12:56;;;;;;;4.13;1.63;;;14.40;92.40;;;;;;5039508;28;20577;-77
2023/05/28 06:15:24;;;;;;;3.23;1.93;;;14.40;93.70;;;;;;5037772;28;20541;-76
2023/05/28 06:17:53;;;;;;;2.03;1.60;;;14.60;92.20;;;;;;5033987;28;20945;-77
2023/05/28 06:20:20;;;;;;;1.87;1.50;;;14.70;91.90;;;;;;5036046;28;20458;-76
2023/05/28 06:22:47;;;;;;;3.67;2.10;;;14.70;91.80;;;;;;5032358;28;20883;-79
2023/05/28 06:25:14;;;;;;;4.40;1.67;;;14.70;91.80;;;;;;5037412;28;20454;-78
2023/05/28 06:27:41;;;;;;;5.47;2.10;;;14.90;93.00;;;;;;5039450;28;20450;-80
2023/05/28 06:30:10;;;;;;;4.67;2.20;;;15.00;91.70;;;;;;5037714;28;20585;-80
2023/05/28 06:32:37;;;;;;;4.83;2.00;;;15.20;92.20;;;;;;5040141;28;20490;-80
2023/05/28 06:35:05;;;;;;;3.50;1.63;;;15.40;90.70;;;;;;5036447;28;20539;-80
2023/05/28 06:37:32;;;;;;;4.00;2.23;;;15.60;90.40;;;;;;5044208;28;20546;-77
2023/05/28 06:39:59;;;;;;;3.50;1.70;;;15.80;91.40;;;;;;5029653;28;20490;-76
2023/05/28 06:42:26;;;;;;;3.90;1.93;;;16.10;90.10;;;;;;5037043;28;20462;-79
2023/05/28 06:44:53;;;;;;;3.40;1.40;;;16.20;86.30;;;;;;5040962;28;20569;-82
2023/05/28 06:47:20;;;;;;;4.77;1.97;;;16.30;87.10;;;;;;5041301;28;20499;-78
2023/05/28 06:49:48;;;;;;;7.73;2.00;;;16.30;89.20;;;;;;5030180;28;20446;-79
2023/05/28 06:52:16;;;;;;;2.27;1.47;;;16.00;86.80;;;;;;5039007;28;20899;-77
2023/05/28 06:54:43;;;;;;;2.50;1.87;;;16.30;86.00;;;;;;5027783;28;20496;-77
2023/05/28 06:57:10;;;;;;;2.93;1.97;;;16.60;84.80;;;;;;5034701;28;20466;-76
2023/05/28 06:59:37;;;;;;;4.23;2.20;;;16.50;86.50;;;;;;5030020;28;20469;-78
2023/05/28 07:02:05;;;;;;;3.37;1.73;;;16.60;91.50;;;;;;5047505;28;21022;-77
2023/05/28 07:04:32;;;;;;;7.77;2.10;;;16.80;86.10;;;;;;5046740;28;20481;-77
2023/05/28 07:06:59;;;;;;;5.77;2.07;;;17.00;88.10;;;;;;5039514;28;20473;-77
2023/05/28 07:09:27;;;;;;;3.53;1.40;;;16.70;84.40;;;;;;5044331;28;21057;-77
2023/05/28 07:11:54;;;;;;;6.17;2.20;;;16.50;82.80;;;;;;5046631;28;20531;-77
2023/05/28 07:14:21;;;;;;;3.97;1.90;;;16.30;89.10;;;;;;5037635;28;20516;-77
2023/05/28 07:16:48;;;;;;;2.27;1.73;;;16.50;86.80;;;;;;5039911;28;20482;-78
2023/05/28 07:19:15;;;;;;;3.43;2.33;;;16.70;85.50;;;;;;5044606;28;20457;-77
2023/05/28 07:21:42;;;;;;;4.70;1.40;;;16.70;80.80;;;;;;5029999;28;20470;-77
2023/05/28 07:24:09;;;;;;;4.13;1.97;;;17.00;84.50;;;;;;5035994;28;20909;-76
2023/05/28 07:26:37;;;;;;;2.17;1.63;;;16.90;82.60;;;;;;5036643;28;20469;-77
2023/05/28 07:29:04;;;;;;;3.13;1.40;;;17.10;81.30;;;;;;5045760;28;20866;-77
2023/05/28 07:31:31;;;;;;;2.70;1.57;;;17.20;83.90;;;;;;5037650;28;20472;-77
2023/05/28 07:33:58;;;;;;;4.90;1.67;;;17.00;84.50;;;;;;5039342;28;20505;-77
2023/05/28 07:36:25;;;;;;;5.30;1.80;;;17.20;82.60;;;;;;5042135;28;20946;-77
2023/05/28 07:38:52;;;;;;;4.03;1.10;;;17.30;76.80;;;;;;5039458;28;20450;-79
2023/05/28 07:41:21;;;;;;;1.77;1.40;;;17.40;80.20;;;;;;5042149;28;20485;-77
2023/05/28 07:43:49;;;;;;;3.17;1.57;;;17.60;80.40;;;;;;5044566;28;20450;-78
2023/05/28 07:46:17;;;;;;;5.00;1.67;;;17.70;78.10;;;;;;5041927;28;20489;-78
2023/05/28 07:48:45;;;;;;;3.00;2.00;;;18.10;80.20;;;;;;5042954;28;20453;-78
2023/05/28 07:51:12;;;;;;;2.43;2.10;;;18.00;84.10;;;;;;5045641;28;20946;-78
2023/05/28 07:53:39;;;;;;;2.50;1.23;;;18.30;73.80;;;;;;5033379;28;20560;-78
2023/05/28 07:56:06;;;;;;;7.50;1.67;;;18.70;74.40;;;;;;5045635;28;20464;-77
2023/05/28 07:58:33;;;;;;;2.30;1.40;;;18.70;75.50;;;;;;5035966;28;20560;-77
2023/05/28 08:01:02;;;;;;;3.73;1.80;;;18.70;73.10;;;;;;5041781;28;20524;-79
2023/05/28 08:03:29;;;;;;;1.90;1.63;;;18.40;73.60;;;;;;5043321;28;20474;-77
2023/05/28 08:05:56;;;;;;;4.00;1.63;;;18.60;74.70;;;;;;5045940;28;20537;-78
2023/05/28 08:08:22;;;;;;;2.60;2.00;;;18.40;69.70;;;;;;5027494;28;20875;-76
2023/05/28 08:10:50;;;;;;;3.80;2.00;;;18.60;77.50;;;;;;5030983;28;20544;-77
2023/05/28 08:13:17;;;;;;;5.90;2.07;;;18.80;69.70;;;;;;5036035;28;20502;-78
2023/05/28 08:15:44;;;;;;;2.73;2.17;;;18.90;69.60;;;;;;5031812;28;20485;-77
2023/05/28 08:18:12;;;;;;;1.70;1.23;;;19.30;71.10;;;;;;5042227;28;20454;-79
2023/05/28 08:20:39;;;;;;;2.40;1.53;;;19.00;66.50;;;;;;5035131;28;20478;-77
2023/05/28 08:23:06;;;;;;;3.43;1.43;;;18.60;65.90;;;;;;5038983;28;20526;-78
2023/05/28 08:25:34;;;;;;;2.90;1.50;;;18.70;67.90;;;;;;5036904;28;20550;-77
2023/05/28 08:28:01;;;;;;;2.50;1.63;;;18.60;68.10;;;;;;5044541;28;20463;-76
2023/05/28 08:30:28;;;;;;;3.10;2.20;;;18.70;77.10;;;;;;5036886;28;20561;-78
2023/05/28 08:32:55;;;;;;;4.80;2.27;;;18.80;68.70;;;;;;5033683;28;20440;-78
2023/05/28 08:35:25;;;;;;;1.90;1.80;;;18.80;67.40;;;;;;5040898;28;20464;-76
2023/05/28 08:37:52;;;;;;;3.93;1.97;;;19.00;73.00;;;;;;5031280;28;20465;-77
2023/05/28 08:40:19;;;;;;;2.57;1.90;;;19.20;67.50;;;;;;5030759;28;20442;-77
2023/05/28 08:42:46;;;;;;;1.97;1.33;;;19.20;69.40;;;;;;5027220;28;20997;-78
2023/05/28 08:45:13;;;;;;;2.80;1.40;;;19.30;66.50;;;;;;5036317;28;20472;-78
2023/05/28 08:47:41;;;;;;;3.97;2.00;;;19.60;70.00;;;;;;5036023;28;20496;-79
2023/05/28 08:50:08;;;;;;;2.17;1.23;;;19.60;69.30;;;;;;5027474;28;21077;-78
2023/05/28 08:52:37;;;;;;;2.93;1.20;;;19.60;65.90;;;;;;5034603;28;20489;-79
2023/05/28 08:55:07;;;;;;;2.43;1.47;;;19.50;61.10;;;;;;5042479;28;21018;-78
2023/05/28 08:57:35;;;;;;;4.10;1.43;;;19.70;64.80;;;;;;5036544;28;20450;-78
2023/05/28 09:00:06;;;;;;;2.77;1.47;;;19.40;64.40;;;;;;5036608;28;20571;-78
2023/05/28 09:02:34;;;;;;;5.20;1.87;;;19.60;68.60;;;;;;5045995;28;20531;-76
2023/05/28 09:05:01;;;;;;;2.67;1.77;;;20.00;65.00;;;;;;5041356;28;20490;-77
2023/05/28 09:07:28;;;;;;;2.20;1.33;;;20.20;65.50;;;;;;5039502;28;20526;-77
2023/05/28 09:09:58;;;;;;;1.50;1.20;;;20.60;64.60;;;;;;5033111;28;20909;-77
2023/05/28 09:12:26;;;;;;;2.57;1.63;;;20.40;56.80;;;;;;5027380;28;20458;-76
2023/05/28 09:14:54;;;;;;;6.30;1.93;;;20.20;60.80;;;;;;5036221;28;20482;-76
2023/05/28 09:17:33;;;;;;;3.27;1.23;;;20.30;59.20;;;;;;5026349;28;20490;-77
2023/05/28 09:20:00;;;;;;;2.20;1.70;;;20.00;61.10;;;;;;5037687;28;21001;-79
2023/05/28 09:22:28;;;;;;;3.90;1.67;;;20.10;61.00;;;;;;5025788;28;20468;-78
2023/05/28 09:24:56;;;;;;;5.33;1.33;;;20.40;60.00;;;;;;5031100;28;20542;-78
2023/05/28 09:27:23;;;;;;;3.07;1.57;;;20.60;59.50;;;;;;5034597;28;20461;-78
2023/05/28 09:29:50;;;;;;;3.57;1.60;;;20.50;57.50;;;;;;5031826;28;20805;-76
2023/05/28 09:32:20;;;;;;;3.20;1.90;;;20.80;57.60;;;;;;5031660;28;20462;-78
2023/05/28 09:34:49;;;;;;;1.40;1.27;;;21.10;55.40;;;;;;5031301;28;20493;-77
2023/05/28 09:37:17;;;;;;;1.50;1.30;;;21.30;54.30;;;;;;5025944;28;20543;-77
2023/05/28 09:39:45;;;;;;;2.63;1.83;;;21.00;55.90;;;;;;5034021;28;20457;-77
2023/05/28 09:42:13;;;;;;;2.17;1.60;;;21.00;64.40;;;;;;5031125;28;20477;-79
2023/05/28 09:44:43;;;;;;;3.23;1.40;;;21.10;55.00;;;;;;5038125;28;20499;-79
2023/05/28 09:47:17;;;;;;;2.70;1.60;;;21.10;54.20;;;;;;5033634;28;20891;-80
2023/05/28 09:49:45;;;;;;;3.10;1.83;;;21.30;52.40;;;;;;5038645;28;20493;-77
2023/05/28 09:52:18;;;;;;;1.57;1.20;;;21.40;55.70;;;;;;5039951;28;20471;-79
2023/05/28 09:54:48;;;;;;;4.57;2.47;;;21.60;56.50;;;;;;5041035;28;20491;-80
2023/05/28 09:57:18;;;;;;;2.67;2.07;;;21.60;57.30;;;;;;5037257;28;20497;-77
2023/05/28 09:59:47;;;;;;;3.17;1.30;;;21.70;50.30;;;;;;5039244;28;21156;-79
2023/05/28 10:02:25;;;;;;;2.43;2.23;;;21.70;52.00;;;;;;5048739;28;20451;-78
2023/05/28 10:04:55;;;;;;;2.40;1.63;;;21.70;52.40;;;;;;5047456;28;20488;-78
2023/05/28 10:07:25;;;;;;;5.17;2.57;;;21.70;51.90;;;;;;5047916;28;20972;-79
2023/05/28 10:09:55;;;;;;;2.20;2.00;;;21.80;48.70;;;;;;5048524;28;20451;-77
2023/05/28 10:12:28;;;;;;;2.60;2.17;;;21.70;47.70;;;;;;5048889;28;20519;-78
2023/05/28 10:14:57;;;;;;;3.07;1.60;;;21.00;45.50;;;;;;5048155;28;20555;-78
2023/05/28 10:17:24;;;;;;;4.30;1.97;;;21.20;51.30;;;;;;5048724;28;20542;-77
2023/05/28 10:19:51;;;;;;;3.40;1.87;;;21.70;50.20;;;;;;5047755;28;20511;-79
2023/05/28 10:22:19;;;;;;;3.87;3.03;;;21.60;50.40;;;;;;5048440;28;20496;-77
2023/05/28 10:24:47;;;;;;;2.70;1.87;;;21.90;51.70;;;;;;5048811;28;20437;-77
2023/05/28 10:27:15;;;;;;;2.80;1.67;;;22.10;49.40;;;;;;5046136;28;20500;-79
2023/05/28 10:29:45;;;;;;;1.90;1.23;;;22.00;46.70;;;;;;5049001;28;20464;-78
2023/05/28 10:32:15;;;;;;;2.80;1.47;;;22.10;50.10;;;;;;5046324;28;20522;-77
2023/05/28 10:34:43;;;;;;;2.37;1.57;;;21.80;45.90;;;;;;5048170;28;20529;-77
2023/05/28 10:37:12;;;;;;;3.10;1.37;;;21.90;46.60;;;;;;5047322;28;20522;-80
2023/05/28 10:39:40;;;;;;;1.73;1.60;;;22.10;45.00;;;;;;5048222;28;20482;-79
2023/05/28 10:42:08;;;;;;;3.60;1.37;;;22.00;45.70;;;;;;5047800;28;21085;-77
2023/05/28 10:45:07;;;;;;;2.70;1.87;;;22.30;47.70;;;;;;5048037;28;20981;-76
2023/05/28 10:47:35;;;;;;;2.60;1.53;;;22.90;43.60;;;;;;5043537;28;20449;-77
2023/05/28 10:50:12;;;;;;;1.77;1.40;;;23.00;40.50;;;;;;5048256;28;20441;-78
2023/05/28 10:52:39;;;;;;;3.13;1.80;;;22.80;39.90;;;;;;5046188;28;20498;-79
2023/05/28 10:55:08;;;;;;;2.50;1.97;;;22.60;39.50;;;;;;5044737;28;20488;-76
2023/05/28 10:57:44;;;;;;;2.50;1.60;;;22.40;37.40;;;;;;5030790;28;20543;-77
2023/05/28 11:00:24;;;;;;;4.37;2.07;;;22.60;40.00;;;;;;5037636;28;21141;-79
2023/05/28 11:02:53;;;;;;;2.87;1.10;;;22.50;40.80;;;;;;5047036;28;20447;-79
2023/05/28 11:05:24;;;;;;;2.07;1.20;;;22.70;38.30;;;;;;5047424;28;20988;-77
2023/05/28 11:07:51;;;;;;;2.80;1.60;;;22.70;40.00;;;;;;5043443;28;20437;-78
2023/05/28 11:10:18;;;;;;;3.10;1.67;;;22.60;40.70;;;;;;5046097;28;20550;-78
2023/05/28 11:12:46;;;;;;;1.87;1.77;;;22.70;42.40;;;;;;5047124;28;20502;-76
2023/05/28 11:15:15;;;;;;;1.63;1.37;;;22.70;37.70;;;;;;5047171;28;20577;-76
2023/05/28 11:17:43;;;;;;;2.40;1.93;;;22.80;42.30;;;;;;5047584;28;20515;-78
2023/05/28 11:20:18;;;;;;;2.83;2.17;;;23.30;42.80;;;;;;5046731;28;20503;-79
2023/05/28 11:22:45;;;;;;;3.47;1.50;;;22.90;39.70;;;;;;5046934;28;20483;-78
2023/05/28 11:25:13;;;;;;;2.40;1.50;;;22.30;37.30;;;;;;5048154;28;21045;-79
2023/05/28 11:27:41;;;;;;;1.57;1.30;;;22.10;40.60;;;;;;5044007;28;20458;-78
2023/05/28 11:30:11;;;;;;;2.13;1.60;;;22.40;39.50;;;;;;5042052;28;21144;-78
2023/05/28 11:32:40;;;;;;;3.67;2.20;;;22.60;41.90;;;;;;5030846;28;20446;-79
2023/05/28 11:35:11;;;;;;;1.33;1.23;;;22.90;46.80;;;;;;5027165;28;20520;-77
2023/05/28 11:37:38;;;;;;;3.93;1.73;;;23.30;44.10;;;;;;5036862;28;20453;-77
2023/05/28 11:40:09;;;;;;;2.93;1.63;;;23.70;44.80;;;;;;5041349;28;20445;-77
2023/05/28 11:42:37;;;;;;;2.60;1.83;;;23.50;39.70;;;;;;5037721;28;20446;-76
2023/05/28 11:45:06;;;;;;;2.90;1.67;;;23.80;41.80;;;;;;5043130;28;20508;-77
2023/05/28 11:47:34;;;;;;;2.70;1.63;;;23.60;38.40;;;;;;5042849;28;20468;-77
2023/05/28 11:50:07;;;;;;;3.50;1.47;;;23.90;38.80;;;;;;5034649;28;20479;-79
2023/05/28 11:52:34;;;;;;;3.43;2.60;;;23.90;37.80;;;;;;5038983;28;20968;-77
2023/05/28 11:55:02;;;;;;;2.80;1.33;;;23.40;37.10;;;;;;5034069;28;20975;-78
2023/05/28 11:57:33;;;;;;;2.83;1.27;;;23.10;35.60;;;;;;5037141;28;20445;-77
2023/05/28 12:00:03;;;;;;;2.47;1.50;;;23.30;44.50;;;;;;5036485;28;20480;-77
2023/05/28 12:02:30;;;;;;;2.33;1.80;;;23.40;43.30;;;;;;5033056;28;20459;-79
2023/05/28 12:04:58;;;;;;;2.43;2.13;;;22.90;37.90;;;;;;5043549;28;20486;-76
2023/05/28 12:07:30;;;;;;;1.83;1.27;;;23.00;40.70;;;;;;5035895;28;20473;-77
2023/05/28 12:10:08;;;;;;;7.40;2.27;;;23.00;38.00;;;;;;5039903;28;20561;-78
2023/05/28 12:12:35;;;;;;;3.03;1.97;;;22.80;36.50;;;;;;5044529;28;20931;-78
2023/05/28 12:15:06;;;;;;;2.17;1.97;;;23.20;40.20;;;;;;5035534;28;20571;-79
2023/05/28 12:17:37;;;;;;;2.87;1.73;;;23.20;37.10;;;;;;5036667;28;20497;-77
2023/05/28 12:20:07;;;;;;;2.30;1.67;;;23.30;44.50;;;;;;5040795;28;20457;-78
2023/05/28 12:22:36;;;;;;;2.60;1.63;;;23.80;41.30;;;;;;5047054;28;20457;-78
2023/05/28 12:25:03;;;;;;;3.60;1.60;;;23.70;37.50;;;;;;5041049;28;20504;-79
2023/05/28 12:27:30;;;;;;;3.27;3.00;;;23.60;42.60;;;;;;5044222;28;20502;-77
2023/05/28 12:29:57;;;;;;;2.67;1.70;;;23.60;36.90;;;;;;5041791;28;20491;-77
2023/05/28 12:32:25;;;;;;;2.40;1.60;;;23.50;33.80;;;;;;5039974;28;21042;-78
2023/05/28 12:34:55;;;;;;;4.93;1.60;;;23.90;38.40;;;;;;5043215;28;20474;-78
2023/05/28 12:37:23;;;;;;;2.03;1.83;;;23.90;38.10;;;;;;5032170;28;20959;-79
2023/05/28 12:39:51;;;;;;;2.37;1.57;;;23.50;34.40;;;;;;5045258;28;20463;-79
2023/05/28 12:42:18;;;;;;;2.20;1.80;;;23.40;40.40;;;;;;5038347;28;20572;-78
2023/05/28 12:44:45;;;;;;;2.53;1.67;;;23.50;37.80;;;;;;5037882;28;20519;-77
2023/05/28 12:47:13;;;;;;;2.37;1.70;;;23.80;37.90;;;;;;5043008;28;20496;-77
2023/05/28 12:49:39;;;;;;;2.90;2.30;;;23.70;34.60;;;;;;5035919;28;20471;-77